Time;durP1;ratioP1;P1;durP2;ratioP2;P2;SDS_P1;SDS_P2;PMS_P1;PMS_P2;Temp;Humidity;BMP_temperature;BMP_pressure;BME280_temperature;BME280_humidity;BME280_pressure;Samples;Min_cycle;Max_cycle;Signal;HPM_P1;HPM_P2
2022/07/03 00:01:40;;;;;;;2.17;1.97;;;13.90;97.30;;;;;;4231112;28;20176;-69
2022/07/03 00:03:41;;;;;;;1.70;1.60;;;13.80;97.70;;;;;;4231614;28;20668;-66
2022/07/03 00:05:42;;;;;;;2.23;1.53;;;13.80;97.90;;;;;;4231244;28;20623;-67
2022/07/03 00:07:42;;;;;;;1.97;1.50;;;13.70;98.40;;;;;;4231235;28;20189;-67
2022/07/03 00:09:43;;;;;;;1.83;1.70;;;13.70;98.80;;;;;;4231212;28;20726;-67
2022/07/03 00:11:43;;;;;;;2.03;1.70;;;13.70;98.80;;;;;;4220210;28;20282;-67
2022/07/03 00:13:44;;;;;;;1.83;1.67;;;13.90;98.60;;;;;;4197319;28;20724;-66
2022/07/03 00:15:45;;;;;;;1.70;1.60;;;14.00;98.40;;;;;;4197633;28;20203;-67
2022/07/03 00:17:45;;;;;;;1.93;1.70;;;14.00;98.00;;;;;;4197802;28;20577;-67
2022/07/03 00:19:46;;;;;;;1.60;1.50;;;14.10;97.30;;;;;;4197867;28;20168;-67
2022/07/03 00:21:55;;;;;;;2.10;1.60;;;14.20;96.90;;;;;;4196703;28;20191;-68
2022/07/03 00:24:45;;;;;;;2.47;1.77;;;14.20;97.00;;;;;;4197213;28;20263;-66
2022/07/03 00:26:50;;;;;;;1.60;1.43;;;14.10;96.60;;;;;;4188909;28;20605;-66
2022/07/03 00:28:52;;;;;;;2.43;1.30;;;14.00;96.80;;;;;;4197248;28;20233;-67
2022/07/03 00:30:55;;;;;;;2.47;1.57;;;14.10;97.10;;;;;;4196793;28;20183;-67
2022/07/03 00:32:56;;;;;;;2.27;1.77;;;14.00;97.10;;;;;;4197269;28;20195;-66
2022/07/03 00:34:57;;;;;;;1.70;1.60;;;14.10;97.00;;;;;;4197314;28;20275;-66
2022/07/03 00:37:00;;;;;;;1.73;1.63;;;14.00;96.90;;;;;;4197195;28;20179;-66
2022/07/03 00:39:01;;;;;;;1.80;1.50;;;14.00;97.10;;;;;;4212614;28;20210;-67
2022/07/03 00:41:03;;;;;;;2.00;1.60;;;13.90;97.10;;;;;;4213260;28;20534;-67
2022/07/03 00:43:05;;;;;;;1.70;1.43;;;13.90;97.20;;;;;;4213595;28;20582;-66
2022/07/03 00:45:07;;;;;;;3.13;1.60;;;13.90;97.30;;;;;;4213775;28;20203;-67
2022/07/03 00:47:08;;;;;;;1.53;1.40;;;13.80;97.20;;;;;;4213793;28;20233;-66
2022/07/03 00:49:10;;;;;;;1.87;1.77;;;13.80;97.70;;;;;;4213898;28;20210;-67
2022/07/03 00:51:15;;;;;;;1.57;1.47;;;13.80;98.00;;;;;;4212897;28;20171;-66
2022/07/03 00:53:28;;;;;;;1.77;1.50;;;13.80;97.90;;;;;;4213140;28;20210;-67
2022/07/03 00:55:29;;;;;;;1.53;1.43;;;13.70;97.90;;;;;;4213209;28;20646;-66
2022/07/03 00:57:30;;;;;;;1.50;1.40;;;13.70;98.10;;;;;;4213443;28;20191;-67
2022/07/03 00:59:31;;;;;;;1.83;1.53;;;13.60;98.30;;;;;;4213247;28;20193;-66
2022/07/03 01:01:34;;;;;;;2.33;1.60;;;13.50;98.20;;;;;;4212877;28;20583;-67
2022/07/03 01:03:41;;;;;;;1.77;1.67;;;13.50;98.40;;;;;;4213102;28;20221;-66
2022/07/03 01:05:49;;;;;;;1.70;1.60;;;13.50;98.50;;;;;;4213487;28;20202;-67
2022/07/03 01:08:29;;;;;;;2.13;1.60;;;13.50;98.30;;;;;;4213446;28;20201;-66
2022/07/03 01:10:52;;;;;;;1.90;1.50;;;13.50;98.60;;;;;;4213462;28;20328;-66
2022/07/03 01:13:17;;;;;;;2.23;1.70;;;13.60;98.50;;;;;;4202175;28;20322;-65
2022/07/03 01:15:27;;;;;;;2.10;1.60;;;13.60;98.00;;;;;;4213144;28;20526;-66
2022/07/03 01:17:35;;;;;;;2.03;1.60;;;13.50;98.20;;;;;;4213178;28;20206;-66
2022/07/03 01:19:43;;;;;;;1.77;1.60;;;13.50;98.10;;;;;;4213084;28;20174;-66
2022/07/03 01:21:52;;;;;;;1.70;1.60;;;13.40;97.90;;;;;;4212211;28;20784;-66
2022/07/03 01:24:23;;;;;;;1.67;1.57;;;13.40;98.70;;;;;;4213318;28;20220;-65
2022/07/03 01:26:30;;;;;;;2.10;1.80;;;13.30;98.80;;;;;;4212992;28;20182;-66
2022/07/03 01:28:33;;;;;;;2.10;1.80;;;13.40;98.30;;;;;;4213015;28;20198;-66
2022/07/03 01:30:40;;;;;;;2.50;1.77;;;13.30;98.60;;;;;;4212994;28;20175;-66
2022/07/03 01:32:44;;;;;;;2.03;1.83;;;13.30;99.20;;;;;;4212554;28;20233;-66
2022/07/03 01:34:51;;;;;;;2.77;1.77;;;13.30;99.60;;;;;;4212819;28;20219;-65
2022/07/03 01:36:57;;;;;;;1.73;1.63;;;13.30;99.20;;;;;;4212819;28;20179;-66
2022/07/03 01:39:01;;;;;;;1.87;1.73;;;13.30;99.20;;;;;;4212510;28;20183;-66
2022/07/03 01:41:04;;;;;;;1.63;1.53;;;13.40;99.30;;;;;;4212060;28;20744;-66
2022/07/03 01:43:08;;;;;;;1.77;1.67;;;13.40;99.20;;;;;;4211795;28;20207;-66
2022/07/03 01:45:09;;;;;;;1.87;1.67;;;13.40;99.10;;;;;;4212666;28;20212;-66
2022/07/03 01:47:10;;;;;;;2.10;1.90;;;13.30;98.80;;;;;;4212613;28;20277;-67
2022/07/03 01:49:12;;;;;;;2.10;1.90;;;13.30;99.00;;;;;;4212475;28;20735;-67
2022/07/03 01:51:15;;;;;;;2.07;1.77;;;13.30;99.30;;;;;;4212008;28;20742;-68
2022/07/03 01:53:17;;;;;;;2.27;1.60;;;13.20;98.90;;;;;;4212733;28;20195;-67
2022/07/03 01:55:20;;;;;;;2.00;1.90;;;13.20;99.20;;;;;;4211221;28;20957;-68
2022/07/03 01:57:23;;;;;;;2.23;1.73;;;13.20;99.40;;;;;;4212448;28;20201;-66
2022/07/03 01:59:24;;;;;;;1.70;1.60;;;13.20;99.50;;;;;;4212374;28;20229;-65
2022/07/03 02:01:47;;;;;;;1.80;1.70;;;13.10;99.90;;;;;;4211669;28;20179;-67
2022/07/03 02:04:06;;;;;;;2.20;2.00;;;13.10;99.90;;;;;;4212428;28;20603;-68
2022/07/03 02:06:18;;;;;;;2.03;1.80;;;13.20;99.90;;;;;;4212250;28;20179;-66
2022/07/03 02:08:21;;;;;;;2.57;2.17;;;13.20;99.90;;;;;;4212470;28;20171;-67
2022/07/03 02:10:32;;;;;;;1.70;1.60;;;13.20;99.90;;;;;;4212449;28;20258;-67
2022/07/03 02:12:59;;;;;;;1.60;1.50;;;13.10;99.90;;;;;;4211898;28;20730;-67
2022/07/03 02:15:08;;;;;;;2.30;2.10;;;13.10;99.90;;;;;;4207512;28;20175;-67
2022/07/03 02:17:20;;;;;;;4.13;2.27;;;13.10;99.90;;;;;;4195560;28;20201;-66
2022/07/03 02:19:34;;;;;;;3.10;1.87;;;13.10;99.90;;;;;;4195283;28;20171;-67
2022/07/03 02:21:37;;;;;;;2.73;1.70;;;13.10;99.90;;;;;;4194684;28;20206;-66
2022/07/03 02:24:00;;;;;;;1.90;1.50;;;13.10;99.90;;;;;;4195295;28;20211;-68
2022/07/03 02:26:05;;;;;;;2.23;1.80;;;12.90;99.70;;;;;;4195430;28;20172;-68
2022/07/03 02:28:13;;;;;;;1.57;1.40;;;12.80;99.90;;;;;;4195410;28;20171;-68
2022/07/03 02:30:16;;;;;;;1.93;1.70;;;12.70;99.50;;;;;;4195357;28;20183;-68
2022/07/03 02:32:22;;;;;;;1.67;1.57;;;12.60;99.70;;;;;;4194591;28;20203;-67
2022/07/03 02:34:23;;;;;;;1.90;1.70;;;12.60;99.80;;;;;;4198419;28;20556;-67
2022/07/03 02:36:28;;;;;;;1.90;1.60;;;12.40;99.90;;;;;;4212092;28;20187;-67
2022/07/03 02:38:29;;;;;;;3.47;1.77;;;12.40;99.90;;;;;;4210466;28;20175;-68
2022/07/03 02:40:39;;;;;;;1.80;1.70;;;12.30;99.90;;;;;;4211892;28;20175;-68
2022/07/03 02:42:47;;;;;;;2.47;1.87;;;12.30;99.90;;;;;;4211459;28;20206;-67
2022/07/03 02:44:52;;;;;;;2.40;2.20;;;12.30;99.90;;;;;;4212185;28;20170;-68
2022/07/03 02:47:02;;;;;;;3.63;1.90;;;12.20;99.90;;;;;;4211934;28;20175;-67
2022/07/03 02:49:16;;;;;;;3.77;2.47;;;12.20;99.90;;;;;;4211859;28;20208;-67
2022/07/03 02:51:22;;;;;;;2.40;2.20;;;12.30;99.90;;;;;;4209464;28;20182;-68
2022/07/03 02:53:30;;;;;;;4.57;2.30;;;12.50;99.90;;;;;;4211472;28;20202;-67
2022/07/03 02:55:45;;;;;;;2.20;2.00;;;12.50;99.90;;;;;;4214223;28;20185;-67
2022/07/03 02:57:55;;;;;;;2.40;2.20;;;12.50;99.90;;;;;;4215192;28;20689;-67
2022/07/03 03:00:06;;;;;;;2.60;2.40;;;12.40;99.90;;;;;;4214992;28;20523;-67
2022/07/03 03:02:10;;;;;;;2.40;2.10;;;12.50;99.90;;;;;;4214306;28;20206;-68
2022/07/03 03:04:32;;;;;;;3.33;2.43;;;12.50;99.90;;;;;;4214910;28;20541;-67
2022/07/03 03:06:35;;;;;;;2.60;2.40;;;12.60;99.90;;;;;;4215012;28;20645;-68
2022/07/03 03:08:43;;;;;;;3.23;2.33;;;12.70;99.90;;;;;;4215074;28;20171;-67
2022/07/03 03:10:44;;;;;;;4.03;2.53;;;12.80;99.90;;;;;;4214529;28;20170;-67
2022/07/03 03:12:51;;;;;;;3.13;2.87;;;12.80;99.90;;;;;;4214754;28;20197;-67
2022/07/03 03:15:00;;;;;;;2.87;2.60;;;12.70;99.90;;;;;;4215039;28;20180;-67
2022/07/03 03:17:05;;;;;;;4.80;2.40;;;12.70;99.90;;;;;;4214878;28;20174;-67
2022/07/03 03:19:06;;;;;;;2.63;2.43;;;12.60;99.90;;;;;;4214898;28;20171;-67
2022/07/03 03:21:12;;;;;;;2.77;2.10;;;12.60;99.90;;;;;;4214136;28;20194;-67
2022/07/03 03:23:34;;;;;;;2.43;2.07;;;12.60;99.90;;;;;;4214727;28;20202;-68
2022/07/03 03:25:35;;;;;;;2.80;2.20;;;12.50;99.90;;;;;;4214786;28;20178;-67
2022/07/03 03:27:36;;;;;;;2.77;2.20;;;12.60;99.90;;;;;;4214803;28;20179;-67
2022/07/03 03:29:37;;;;;;;3.10;2.17;;;12.60;99.90;;;;;;4214904;28;20309;-67
2022/07/03 03:31:38;;;;;;;2.53;2.30;;;12.50;99.90;;;;;;4214433;28;20254;-68
2022/07/03 03:33:43;;;;;;;2.50;2.20;;;12.50;99.90;;;;;;4214715;28;20224;-67
2022/07/03 03:35:43;;;;;;;2.13;1.93;;;12.40;99.90;;;;;;4214788;28;20179;-68
2022/07/03 03:37:48;;;;;;;2.70;1.90;;;12.40;99.90;;;;;;4214654;28;20258;-68
2022/07/03 03:39:49;;;;;;;2.13;1.93;;;12.40;99.90;;;;;;4214819;28;20232;-67
2022/07/03 03:41:49;;;;;;;2.10;1.90;;;12.50;99.90;;;;;;4213787;28;20268;-68
2022/07/03 03:43:50;;;;;;;2.87;1.87;;;12.40;99.90;;;;;;4214400;28;20290;-67
2022/07/03 03:45:50;;;;;;;2.40;2.00;;;12.30;99.90;;;;;;4214473;28;20183;-67
2022/07/03 03:47:51;;;;;;;2.37;2.07;;;12.20;99.90;;;;;;4214522;28;20179;-67
2022/07/03 03:49:52;;;;;;;3.67;2.00;;;12.10;99.90;;;;;;4214244;28;20266;-67
2022/07/03 03:51:52;;;;;;;3.07;1.90;;;12.00;99.90;;;;;;4212470;28;20308;-67
2022/07/03 03:53:53;;;;;;;2.37;2.17;;;12.00;99.90;;;;;;4214354;28;20254;-68
2022/07/03 03:56:05;;;;;;;2.30;2.10;;;12.10;99.90;;;;;;4214368;28;20175;-67
2022/07/03 03:58:05;;;;;;;2.47;2.27;;;12.10;99.90;;;;;;4214255;28;20181;-67
2022/07/03 04:00:07;;;;;;;2.37;2.00;;;12.10;99.90;;;;;;4214293;28;20261;-66
2022/07/03 04:02:07;;;;;;;3.73;2.37;;;12.00;99.90;;;;;;4213305;28;20210;-67
2022/07/03 04:04:08;;;;;;;2.80;2.20;;;12.10;99.90;;;;;;4214146;28;20185;-67
2022/07/03 04:06:09;;;;;;;1.90;1.80;;;12.10;99.90;;;;;;4213592;28;20198;-67
2022/07/03 04:08:10;;;;;;;2.93;2.37;;;12.10;99.90;;;;;;4212761;28;20194;-66
2022/07/03 04:10:11;;;;;;;2.40;2.10;;;12.10;99.90;;;;;;4214076;28;20825;-66
2022/07/03 04:12:11;;;;;;;2.23;2.03;;;12.10;99.90;;;;;;4213408;28;20175;-67
2022/07/03 04:14:12;;;;;;;2.17;1.97;;;12.10;99.90;;;;;;4214231;28;20543;-66
2022/07/03 04:16:12;;;;;;;2.20;2.00;;;12.10;99.90;;;;;;4214228;28;20266;-66
2022/07/03 04:18:13;;;;;;;2.27;1.90;;;12.10;99.90;;;;;;4214349;28;20240;-66
2022/07/03 04:20:13;;;;;;;3.87;2.00;;;12.10;99.90;;;;;;4213779;28;20259;-66
2022/07/03 04:22:14;;;;;;;2.33;2.00;;;12.10;99.90;;;;;;4209965;28;20203;-67
2022/07/03 04:24:15;;;;;;;2.40;2.20;;;12.10;99.90;;;;;;4197133;28;20581;-67
2022/07/03 04:26:15;;;;;;;4.63;2.30;;;12.10;99.90;;;;;;4197227;28;20168;-67
2022/07/03 04:28:16;;;;;;;2.30;2.00;;;12.10;99.90;;;;;;4201254;28;20184;-67
2022/07/03 04:30:16;;;;;;;2.67;2.17;;;12.20;99.90;;;;;;4213652;28;20187;-67
2022/07/03 04:32:17;;;;;;;2.30;2.10;;;12.20;99.90;;;;;;4212898;28;20249;-68
2022/07/03 04:34:18;;;;;;;2.40;2.20;;;12.20;99.90;;;;;;4212672;28;20225;-67
2022/07/03 04:36:18;;;;;;;2.87;2.50;;;12.30;99.90;;;;;;4214005;28;20182;-68
2022/07/03 04:38:19;;;;;;;2.40;2.20;;;12.30;99.90;;;;;;4213680;28;20187;-67
2022/07/03 04:40:19;;;;;;;3.20;2.70;;;12.40;99.90;;;;;;4213949;28;20183;-68
2022/07/03 04:42:20;;;;;;;3.20;2.33;;;12.30;99.90;;;;;;4212973;28;20206;-67
2022/07/03 04:44:20;;;;;;;3.70;2.40;;;12.30;99.90;;;;;;4213716;28;20604;-67
2022/07/03 04:46:21;;;;;;;3.73;2.37;;;12.30;99.90;;;;;;4213796;28;20865;-66
2022/07/03 04:48:22;;;;;;;2.80;2.50;;;12.40;99.90;;;;;;4213725;28;20179;-66
2022/07/03 04:50:22;;;;;;;3.40;2.50;;;12.40;99.90;;;;;;4202920;28;20184;-68
2022/07/03 04:52:23;;;;;;;2.67;2.40;;;12.40;99.90;;;;;;4208659;28;20214;-67
2022/07/03 04:54:24;;;;;;;3.07;2.33;;;12.40;99.90;;;;;;4213447;28;20232;-67
2022/07/03 04:56:24;;;;;;;2.87;2.20;;;12.50;99.90;;;;;;4213554;28;20189;-67
2022/07/03 04:58:25;;;;;;;2.20;2.00;;;12.50;99.90;;;;;;4213378;28;20194;-67
2022/07/03 05:00:26;;;;;;;2.40;2.20;;;12.50;99.90;;;;;;4213604;28;20329;-67
2022/07/03 05:02:26;;;;;;;2.43;2.20;;;12.50;99.90;;;;;;4212623;28;20229;-66
2022/07/03 05:04:27;;;;;;;3.17;2.10;;;12.50;99.90;;;;;;4213364;28;20533;-66
2022/07/03 05:06:27;;;;;;;2.30;2.10;;;12.50;99.90;;;;;;4213523;28;20232;-67
2022/07/03 05:08:28;;;;;;;2.57;2.00;;;12.50;99.90;;;;;;4213358;28;20175;-69
2022/07/03 05:10:28;;;;;;;3.87;2.23;;;12.50;99.90;;;;;;4213417;28;20717;-67
2022/07/03 05:12:29;;;;;;;2.50;2.23;;;12.40;99.90;;;;;;4212159;28;20206;-67
2022/07/03 05:14:29;;;;;;;2.00;1.73;;;12.50;99.90;;;;;;4213298;28;20210;-69
2022/07/03 05:16:31;;;;;;;1.80;1.70;;;12.50;99.90;;;;;;4213268;28;20194;-67
2022/07/03 05:18:32;;;;;;;1.70;1.60;;;12.50;99.90;;;;;;4213244;28;20869;-67
2022/07/03 05:20:33;;;;;;;1.80;1.70;;;12.60;99.90;;;;;;4213013;28;20198;-68
2022/07/03 05:22:33;;;;;;;1.90;1.70;;;12.70;99.90;;;;;;4212637;28;20218;-67
2022/07/03 05:24:34;;;;;;;1.63;1.53;;;12.70;99.90;;;;;;4212882;28;20175;-67
2022/07/03 05:26:34;;;;;;;2.00;1.63;;;12.80;99.90;;;;;;4212998;28;20183;-66
2022/07/03 05:28:35;;;;;;;2.10;1.90;;;12.80;99.90;;;;;;4213067;28;20178;-68
2022/07/03 05:30:36;;;;;;;3.37;1.80;;;12.90;99.90;;;;;;4212836;28;20183;-67
2022/07/03 05:32:36;;;;;;;2.63;2.27;;;13.00;99.90;;;;;;4212117;28;20211;-67
2022/07/03 05:34:37;;;;;;;2.03;1.73;;;13.10;99.90;;;;;;4212877;28;20721;-66
2022/07/03 05:36:37;;;;;;;1.70;1.60;;;13.10;99.90;;;;;;4212677;28;20275;-67
2022/07/03 05:40:57;;;;;;;1.77;1.60;;;13.10;99.90;;;;;;4212205;28;20189;-67
2022/07/03 05:42:58;;;;;;;2.20;1.60;;;13.20;99.90;;;;;;4212407;28;20211;-67
2022/07/03 05:44:58;;;;;;;1.60;1.50;;;13.30;99.90;;;;;;4212424;28;20296;-67
2022/07/03 05:46:59;;;;;;;1.53;1.40;;;13.30;99.90;;;;;;4212533;28;20182;-67
2022/07/03 05:48:59;;;;;;;1.60;1.50;;;13.30;99.90;;;;;;4212414;28;20186;-66
2022/07/03 05:51:00;;;;;;;1.57;1.43;;;13.40;99.90;;;;;;4211602;28;20217;-67
2022/07/03 05:53:00;;;;;;;1.43;1.33;;;13.50;99.90;;;;;;4212127;28;20209;-67
2022/07/03 05:55:01;;;;;;;1.43;1.33;;;13.60;99.90;;;;;;4212389;28;20191;-67
2022/07/03 05:57:02;;;;;;;1.30;1.20;;;13.60;99.90;;;;;;4212409;28;20214;-67
2022/07/03 05:59:02;;;;;;;3.43;1.47;;;13.70;99.90;;;;;;4212194;28;20676;-68
2022/07/03 06:01:03;;;;;;;1.63;1.30;;;13.70;99.50;;;;;;4211499;28;20262;-67
2022/07/03 06:03:04;;;;;;;2.53;1.40;;;13.80;99.20;;;;;;4211879;28;20214;-66
2022/07/03 06:05:04;;;;;;;1.97;1.33;;;13.90;98.90;;;;;;4211919;28;20187;-67
2022/07/03 06:07:05;;;;;;;2.53;1.33;;;14.00;98.90;;;;;;4211995;28;20178;-67
2022/07/03 06:09:06;;;;;;;1.37;1.27;;;14.10;98.40;;;;;;4212028;28;20277;-66
2022/07/03 06:11:06;;;;;;;1.30;1.20;;;14.20;98.30;;;;;;4211402;28;20194;-67
2022/07/03 06:13:08;;;;;;;1.47;1.23;;;14.20;97.90;;;;;;4211854;28;20985;-67
2022/07/03 06:15:09;;;;;;;1.00;1.00;;;14.20;98.40;;;;;;4210544;28;20249;-67
2022/07/03 06:17:09;;;;;;;1.97;1.20;;;14.20;98.40;;;;;;4212048;28;20542;-67
2022/07/03 06:19:10;;;;;;;1.20;1.10;;;14.40;98.00;;;;;;4208574;28;20171;-67
2022/07/03 06:21:10;;;;;;;2.87;1.17;;;14.50;97.60;;;;;;4194577;28;20188;-67
2022/07/03 06:23:11;;;;;;;1.00;1.00;;;14.60;96.60;;;;;;4195169;28;20230;-67
2022/07/03 06:25:12;;;;;;;1.83;1.00;;;14.80;95.80;;;;;;4211831;28;20190;-67
2022/07/03 06:27:12;;;;;;;1.20;1.10;;;14.90;96.60;;;;;;4212108;28;20183;-67
2022/07/03 06:29:13;;;;;;;1.20;1.10;;;15.00;95.10;;;;;;4211329;28;20182;-67
2022/07/03 06:31:13;;;;;;;1.43;1.00;;;15.10;95.00;;;;;;4211332;28;20186;-68
2022/07/03 06:33:14;;;;;;;1.50;1.10;;;15.50;92.50;;;;;;4211896;28;20232;-67
2022/07/03 06:35:14;;;;;;;1.23;0.80;;;15.70;92.10;;;;;;4210732;28;20213;-67
2022/07/03 06:37:15;;;;;;;1.33;0.90;;;15.80;91.00;;;;;;4211923;28;20171;-67
2022/07/03 06:39:16;;;;;;;2.73;0.80;;;16.20;83.10;;;;;;4211639;28;20179;-68
2022/07/03 06:41:16;;;;;;;1.87;0.93;;;16.50;81.30;;;;;;4210567;28;20232;-67
2022/07/03 06:43:17;;;;;;;1.67;0.97;;;16.60;76.50;;;;;;4206599;28;20259;-67
2022/07/03 06:45:17;;;;;;;0.90;0.73;;;17.00;73.50;;;;;;4211582;28;20240;-68
2022/07/03 06:47:18;;;;;;;3.23;0.90;;;17.30;68.30;;;;;;4211571;28;20689;-67
2022/07/03 06:49:19;;;;;;;1.37;0.80;;;17.60;68.60;;;;;;4211625;28;20182;-67
2022/07/03 06:51:19;;;;;;;0.70;0.70;;;17.50;67.30;;;;;;4217312;28;20179;-67
2022/07/03 06:53:20;;;;;;;0.87;0.87;;;17.70;66.20;;;;;;4222540;28;20281;-68
2022/07/03 06:55:21;;;;;;;2.17;0.77;;;18.00;65.10;;;;;;4228486;28;20178;-66
2022/07/03 06:57:21;;;;;;;2.37;1.10;;;18.10;62.50;;;;;;4228343;28;20680;-67
2022/07/03 06:59:22;;;;;;;2.07;0.80;;;18.30;63.60;;;;;;4228491;28;20185;-65
2022/07/03 07:01:22;;;;;;;3.17;0.70;;;18.40;64.70;;;;;;4227646;28;20794;-68
2022/07/03 07:03:23;;;;;;;0.70;0.70;;;18.30;62.60;;;;;;4211574;28;20211;-67
2022/07/03 07:05:23;;;;;;;0.70;0.70;;;18.40;62.80;;;;;;4211568;28;20266;-67
2022/07/03 07:07:24;;;;;;;0.80;0.80;;;18.60;62.30;;;;;;4211500;28;20179;-68
2022/07/03 07:09:25;;;;;;;1.13;0.70;;;18.80;58.00;;;;;;4211555;28;20183;-67
2022/07/03 07:11:25;;;;;;;3.00;0.97;;;19.10;52.90;;;;;;4210864;28;20246;-66
2022/07/03 07:13:26;;;;;;;1.50;1.40;;;19.50;51.60;;;;;;4211561;28;20206;-67
2022/07/03 07:15:26;;;;;;;2.83;2.70;;;19.70;50.90;;;;;;4211535;28;20179;-67
2022/07/03 07:17:27;;;;;;;2.30;2.20;;;19.80;49.40;;;;;;4211618;28;20186;-66
2022/07/03 07:19:27;;;;;;;1.13;0.93;;;19.90;48.20;;;;;;4211477;28;20183;-67
2022/07/03 07:21:28;;;;;;;1.10;1.00;;;20.10;48.50;;;;;;4210788;28;20182;-67
2022/07/03 07:23:29;;;;;;;0.97;0.97;;;20.10;48.30;;;;;;4211403;28;20215;-67
2022/07/03 07:25:29;;;;;;;1.40;0.70;;;20.30;46.90;;;;;;4211439;28;20595;-67
2022/07/03 07:27:30;;;;;;;0.70;0.70;;;20.40;46.60;;;;;;4211417;28;20167;-67
2022/07/03 07:29:30;;;;;;;1.30;1.20;;;20.50;44.90;;;;;;4211318;28;20597;-67
2022/07/03 07:31:31;;;;;;;0.90;0.70;;;20.60;44.50;;;;;;4210905;28;20679;-67
2022/07/03 07:33:31;;;;;;;2.33;2.20;;;20.60;43.60;;;;;;4211443;28;20241;-67
2022/07/03 07:35:32;;;;;;;1.27;1.20;;;20.70;43.10;;;;;;4211356;28;20254;-67
2022/07/03 07:37:32;;;;;;;1.07;0.70;;;20.80;41.40;;;;;;4211350;28;20175;-66
2022/07/03 07:39:33;;;;;;;4.73;1.03;;;20.90;41.70;;;;;;4211485;28;20190;-67
2022/07/03 07:41:33;;;;;;;1.00;1.00;;;21.00;42.30;;;;;;4211644;28;20232;-66
2022/07/03 07:43:34;;;;;;;1.00;0.80;;;21.10;43.20;;;;;;4214411;28;20202;-66
2022/07/03 07:45:35;;;;;;;0.80;0.80;;;21.20;41.70;;;;;;4214438;28;20179;-67
2022/07/03 07:47:35;;;;;;;0.60;0.60;;;21.20;41.20;;;;;;4214639;28;20175;-67
2022/07/03 07:49:36;;;;;;;2.10;0.67;;;21.20;40.70;;;;;;4214167;28;20171;-66
2022/07/03 07:51:36;;;;;;;0.90;0.90;;;21.30;40.10;;;;;;4213746;28;20175;-67
2022/07/03 07:53:37;;;;;;;1.43;0.90;;;21.20;39.70;;;;;;4214197;28;20202;-67
2022/07/03 07:55:37;;;;;;;1.40;1.30;;;21.30;40.20;;;;;;4214325;28;20238;-66
2022/07/03 07:57:39;;;;;;;4.10;3.90;;;21.30;40.70;;;;;;4214377;28;20179;-67
2022/07/03 07:59:40;;;;;;;1.60;1.53;;;21.30;39.40;;;;;;4214078;28;20642;-68
2022/07/03 08:06:18;;;;;;;0.70;0.70;;;21.60;41.10;;;;;;4214174;28;20182;-67
2022/07/03 08:08:19;;;;;;;2.30;2.20;;;21.80;38.80;;;;;;4214032;28;20175;-67
2022/07/03 08:10:19;;;;;;;2.70;2.50;;;21.80;39.40;;;;;;4213898;28;20186;-67
2022/07/03 08:12:20;;;;;;;0.70;0.70;;;21.80;38.40;;;;;;4213092;28;20207;-68
2022/07/03 08:14:20;;;;;;;2.43;2.33;;;21.90;35.90;;;;;;4213915;28;20179;-67
2022/07/03 08:16:21;;;;;;;1.20;1.20;;;22.00;35.80;;;;;;4201531;28;20184;-67
2022/07/03 08:18:22;;;;;;;0.63;0.63;;;22.00;35.50;;;;;;4197004;28;20324;-67
2022/07/03 08:20:22;;;;;;;1.73;0.70;;;22.00;36.00;;;;;;4204753;28;20925;-67
2022/07/03 08:22:23;;;;;;;2.53;0.97;;;22.10;36.20;;;;;;4213164;28;20624;-66
2022/07/03 08:24:23;;;;;;;0.70;0.70;;;22.00;34.70;;;;;;4213911;28;20569;-67
2022/07/03 08:26:24;;;;;;;0.70;0.70;;;22.10;35.90;;;;;;4213425;28;20171;-68
2022/07/03 08:28:24;;;;;;;1.47;0.90;;;22.10;34.60;;;;;;4213661;28;20221;-67
2022/07/03 08:30:26;;;;;;;2.33;1.70;;;22.10;35.00;;;;;;4213553;28;20266;-66
2022/07/03 08:32:26;;;;;;;0.70;0.70;;;22.30;35.20;;;;;;4213070;28;20584;-66
2022/07/03 08:34:27;;;;;;;1.30;1.20;;;22.40;34.00;;;;;;4213942;28;20175;-66
2022/07/03 08:36:27;;;;;;;1.27;0.70;;;22.30;34.00;;;;;;4214318;28;20183;-70
2022/07/03 08:38:33;;;;;;;1.10;1.00;;;22.40;34.40;;;;;;4214496;28;20187;-69
2022/07/03 08:40:34;;;;;;;2.87;2.67;;;22.50;34.70;;;;;;4214142;28;20557;-69
2022/07/03 08:42:37;;;;;;;0.93;0.70;;;22.50;32.90;;;;;;4213077;28;20246;-69
2022/07/03 08:44:39;;;;;;;1.23;1.13;;;22.40;33.30;;;;;;4213820;28;20171;-69
2022/07/03 08:46:40;;;;;;;1.00;0.80;;;22.50;33.70;;;;;;4214195;28;20211;-70
2022/07/03 08:48:43;;;;;;;0.80;0.80;;;22.60;34.20;;;;;;4214033;28;21372;-70
2022/07/03 08:50:44;;;;;;;0.70;0.70;;;22.60;33.00;;;;;;4209854;28;20190;-68
2022/07/03 08:52:45;;;;;;;0.80;0.80;;;22.60;32.80;;;;;;4227456;28;20691;-69
2022/07/03 08:54:46;;;;;;;2.30;0.77;;;22.90;34.30;;;;;;4214576;28;20227;-68
2022/07/03 08:56:47;;;;;;;2.60;1.47;;;22.90;33.60;;;;;;4227961;28;20861;-67
2022/07/03 08:58:48;;;;;;;0.80;0.80;;;22.90;34.00;;;;;;4214782;28;20215;-68
2022/07/03 09:00:49;;;;;;;0.70;0.70;;;22.80;32.90;;;;;;4226865;28;20228;-67
2022/07/03 09:02:49;;;;;;;2.70;0.80;;;23.00;34.00;;;;;;4214860;28;20251;-68
2022/07/03 09:04:50;;;;;;;1.07;0.83;;;23.10;32.40;;;;;;4227127;28;20614;-66
2022/07/03 09:06:51;;;;;;;1.00;1.00;;;23.20;34.20;;;;;;4215156;28;20175;-68
2022/07/03 09:08:55;;;;;;;0.80;0.80;;;23.30;33.00;;;;;;4227038;28;20206;-68
2022/07/03 09:10:56;;;;;;;0.80;0.80;;;23.30;33.70;;;;;;4215161;28;20562;-67
2022/07/03 09:12:57;;;;;;;0.77;0.77;;;23.40;35.20;;;;;;4226039;28;20213;-68
2022/07/03 09:15:03;;;;;;;1.20;1.00;;;23.30;33.30;;;;;;4216030;28;20189;-67
2022/07/03 09:17:07;;;;;;;0.70;0.70;;;23.20;33.00;;;;;;4225196;28;20661;-67
2022/07/03 09:19:07;;;;;;;1.00;0.80;;;23.50;34.60;;;;;;4217262;28;20174;-67
2022/07/03 09:21:08;;;;;;;1.00;0.90;;;23.40;32.10;;;;;;4223814;28;20646;-67
2022/07/03 09:23:15;;;;;;;0.70;0.70;;;23.30;32.80;;;;;;4217643;28;20263;-67
2022/07/03 09:25:15;;;;;;;10.07;9.53;;;23.50;33.30;;;;;;4223446;27;20278;-68
2022/07/03 09:27:18;;;;;;;1.17;0.80;;;23.60;33.40;;;;;;4218215;28;20224;-67
2022/07/03 09:29:19;;;;;;;1.00;0.90;;;23.80;33.30;;;;;;4222656;28;20215;-68
2022/07/03 09:31:22;;;;;;;1.00;0.87;;;24.00;34.00;;;;;;4218613;28;20193;-67
2022/07/03 09:33:23;;;;;;;0.80;0.80;;;24.20;31.90;;;;;;4221972;28;20195;-67
2022/07/03 09:35:25;;;;;;;2.97;0.90;;;24.30;32.70;;;;;;4212234;28;20187;-69
2022/07/03 09:37:29;;;;;;;10.13;9.53;;;24.40;32.60;;;;;;4219652;28;20228;-68
2022/07/03 09:39:31;;;;;;;2.57;1.00;;;24.40;31.70;;;;;;4220950;28;20224;-68
2022/07/03 09:42:00;;;;;;;1.33;1.17;;;24.30;31.30;;;;;;4219783;28;20264;-67
2022/07/03 09:44:01;;;;;;;0.80;0.80;;;24.30;31.40;;;;;;4216884;28;20190;-66
2022/07/03 09:46:02;;;;;;;1.67;1.43;;;24.40;32.10;;;;;;4224537;28;20205;-67
2022/07/03 09:48:03;;;;;;;2.60;1.50;;;24.60;32.30;;;;;;4216291;28;20549;-65
2022/07/03 09:50:05;;;;;;;2.57;2.37;;;24.50;31.10;;;;;;4224597;28;20178;-67
2022/07/03 09:52:06;;;;;;;9.00;8.60;;;24.50;32.00;;;;;;4215109;28;20178;-65
2022/07/03 09:54:06;;;;;;;1.10;1.00;;;24.30;31.10;;;;;;4225224;28;20182;-65
2022/07/03 09:56:07;;;;;;;5.00;1.00;;;24.50;33.10;;;;;;4215655;28;20183;-65
2022/07/03 09:58:08;;;;;;;1.83;1.13;;;24.70;31.80;;;;;;4225284;28;20175;-66
2022/07/03 10:00:14;;;;;;;4.23;4.03;;;24.90;31.90;;;;;;4215441;28;20192;-67
2022/07/03 10:02:15;;;;;;;1.47;1.33;;;25.00;31.70;;;;;;4225188;28;20206;-68
2022/07/03 10:04:17;;;;;;;2.10;1.20;;;25.00;30.70;;;;;;4212378;28;20183;-63
2022/07/03 10:06:17;;;;;;;1.03;0.80;;;25.00;32.70;;;;;;4226413;28;20185;-66
2022/07/03 10:08:20;;;;;;;3.07;2.87;;;25.10;30.40;;;;;;4214062;28;20179;-68
2022/07/03 10:10:22;;;;;;;1.13;1.00;;;25.60;31.30;;;;;;4226757;28;20182;-67
2022/07/03 10:12:24;;;;;;;1.80;1.70;;;25.40;29.40;;;;;;4201913;28;20290;-65
2022/07/03 10:14:27;;;;;;;1.13;1.03;;;25.20;30.50;;;;;;4225980;28;20656;-67
2022/07/03 10:16:27;;;;;;;1.20;1.10;;;25.50;31.60;;;;;;4212578;28;20615;-67
2022/07/03 10:18:30;;;;;;;7.90;7.30;;;25.70;29.80;;;;;;4227521;28;20203;-67
2022/07/03 10:20:38;;;;;;;3.00;2.90;;;25.70;30.10;;;;;;4211739;28;20191;-68
2022/07/03 10:22:40;;;;;;;5.77;5.37;;;25.40;29.40;;;;;;4195560;28;20298;-67
2022/07/03 10:24:42;;;;;;;1.60;1.50;;;25.60;29.60;;;;;;4227344;28;20288;-68
2022/07/03 10:26:43;;;;;;;2.27;2.07;;;25.80;29.50;;;;;;4212788;28;20182;-67
2022/07/03 10:28:45;;;;;;;0.90;0.90;;;25.90;29.10;;;;;;4224545;28;20572;-66
2022/07/03 10:30:47;;;;;;;1.87;1.10;;;25.90;28.90;;;;;;4212673;28;20324;-68
2022/07/03 10:32:49;;;;;;;7.23;6.90;;;26.20;29.50;;;;;;4226304;28;20198;-66
2022/07/03 10:34:50;;;;;;;2.10;1.47;;;26.20;28.90;;;;;;4213774;28;20191;-65
2022/07/03 10:36:56;;;;;;;1.47;1.37;;;26.30;29.40;;;;;;4225770;28;20281;-65
2022/07/03 10:39:01;;;;;;;5.53;5.27;;;26.20;29.00;;;;;;4214685;28;20265;-65
2022/07/03 10:46:17;;;;;;;4.50;4.10;;;27.40;28.30;;;;;;4214429;28;20209;-67
2022/07/03 10:48:17;;;;;;;2.33;2.17;;;28.20;27.20;;;;;;4225843;28;20190;-68
2022/07/03 10:50:23;;;;;;;7.53;7.07;;;28.70;27.40;;;;;;4213519;28;20182;-67
2022/07/03 10:52:24;;;;;;;2.47;2.27;;;28.80;25.90;;;;;;4226119;28;20882;-68
2022/07/03 10:54:37;;;;;;;3.17;2.97;;;28.80;26.60;;;;;;4212508;28;20182;-68